Time,TemperatureF,DewpointF,PressureIn,WindDirection,WindDirectionDegrees,WindSpeedMPH,WindSpeedGustMPH,Humidity,HourlyPrecipIn,Conditions,Clouds,dailyrainin,SoftwareType,DateUTC
2013-08-19 00:00:00,62.6,54.6,29.80,ESE,111,0.0,5.0,75,0.00,,,0.00,Wunderground v.1.15,2013-08-19 07:00:00,
2013-08-19 00:10:00,62.6,54.2,29.81,ESE,111,0.0,5.0,74,0.00,,,0.00,Wunderground v.1.15,2013-08-19 07:10:00,
2013-08-19 00:15:00,62.5,54.1,29.81,ESE,112,0.0,5.0,74,0.00,,,0.00,Wunderground v.1.15,2013-08-19 07:15:00,
2013-08-19 00:20:00,62.3,53.9,29.81,ESE,112,0.0,5.0,74,0.00,,,0.00,Wunderground v.1.15,2013-08-19 07:20:00,
2013-08-19 00:30:00,62.0,54.0,29.81,ESE,112,0.0,5.0,75,0.00,,,0.00,Wunderground v.1.15,2013-08-19 07:30:00,
2013-08-19 00:35:00,61.9,53.9,29.81,ESE,112,0.0,5.0,75,0.00,,,0.00,Wunderground v.1.15,2013-08-19 07:35:00,
2013-08-19 00:40:00,61.8,53.8,29.81,ESE,112,0.0,5.0,75,0.00,,,0.00,Wunderground v.1.15,2013-08-19 07:40:00,
2013-08-19 00:45:00,61.7,54.1,29.80,ESE,112,0.0,5.0,76,0.00,,,0.00,Wunderground v.1.15,2013-08-19 07:45:00,
2013-08-19 00:50:00,61.7,54.1,29.80,ESE,111,0.0,5.0,76,0.00,,,0.00,Wunderground v.1.15,2013-08-19 07:50:00,
2013-08-19 01:00:00,61.6,54.0,29.80,ESE,111,0.0,5.0,76,0.00,,,0.00,Wunderground v.1.15,2013-08-19 08:00:00,
2013-08-19 01:05:00,61.4,54.1,29.81,ESE,112,0.0,5.0,77,0.00,,,0.00,Wunderground v.1.15,2013-08-19 08:05:00,
2013-08-19 01:10:00,61.4,54.1,29.81,ESE,112,0.0,5.0,77,0.00,,,0.00,Wunderground v.1.15,2013-08-19 08:10:00,
2013-08-19 01:15:00,61.3,54.0,29.81,ESE,112,0.0,5.0,77,0.00,,,0.00,Wunderground v.1.15,2013-08-19 08:15:00,
2013-08-19 01:25:00,61.1,53.8,29.81,ESE,111,0.0,5.0,77,0.00,,,0.00,Wunderground v.1.15,2013-08-19 08:25:00,
2013-08-19 01:30:00,60.9,53.6,29.81,ESE,111,0.0,5.0,77,0.00,,,0.00,Wunderground v.1.15,2013-08-19 08:30:00,
2013-08-19 01:35:00,60.8,53.9,29.81,ESE,112,0.0,5.0,78,0.00,,,0.00,Wunderground v.1.15,2013-08-19 08:35:00,
2013-08-19 01:40:00,60.7,53.8,29.81,ESE,111,0.0,5.0,78,0.00,,,0.00,Wunderground v.1.15,2013-08-19 08:40:00,
2013-08-19 01:45:00,60.5,53.6,29.80,ESE,112,0.0,5.0,78,0.00,,,0.00,Wunderground v.1.15,2013-08-19 08:45:00,
2013-08-19 01:55:00,60.3,53.8,29.80,ESE,112,0.0,5.0,79,0.00,,,0.00,Wunderground v.1.15,2013-08-19 08:55:00,
2013-08-19 02:00:00,60.2,53.7,29.80,ESE,112,0.0,5.0,79,0.00,,,0.00,Wunderground v.1.15,2013-08-19 09:00:00,
2013-08-19 02:05:00,60.2,54.0,29.79,ESE,111,0.0,5.0,80,0.00,,,0.00,Wunderground v.1.15,2013-08-19 09:05:00,
2013-08-19 02:10:00,60.2,54.0,29.79,ESE,111,0.0,5.0,80,0.00,,,0.00,Wunderground v.1.15,2013-08-19 09:10:00,
2013-08-19 02:20:00,60.1,53.9,29.78,ESE,112,0.0,5.0,80,0.00,,,0.00,Wunderground v.1.15,2013-08-19 09:20:00,
2013-08-19 02:25:00,60.1,54.2,29.78,ESE,112,0.0,5.0,81,0.00,,,0.00,Wunderground v.1.15,2013-08-19 09:25:00,
2013-08-19 02:30:00,60.0,54.2,29.79,ESE,111,0.0,5.0,81,0.00,,,0.00,Wunderground v.1.15,2013-08-19 09:30:00,
2013-08-19 02:35:00,60.0,54.2,29.79,ESE,112,0.0,5.0,81,0.00,,,0.00,Wunderground v.1.15,2013-08-19 09:35:00,
2013-08-19 02:45:00,59.9,54.4,29.79,ESE,112,0.0,5.0,82,0.00,,,0.00,Wunderground v.1.15,2013-08-19 09:45:00,
2013-08-19 02:50:00,60.0,54.5,29.79,ESE,112,0.0,5.0,82,0.00,,,0.00,Wunderground v.1.15,2013-08-19 09:50:00,
2013-08-19 02:55:00,60.2,54.3,29.79,ESE,112,0.0,5.0,81,0.00,,,0.00,Wunderground v.1.15,2013-08-19 09:55:00,
2013-08-19 03:00:00,60.1,54.2,29.79,ESE,112,0.0,5.0,81,0.00,,,0.00,Wunderground v.1.15,2013-08-19 10:00:00,
2013-08-19 03:05:00,59.9,54.4,29.79,ESE,112,0.0,5.0,82,0.00,,,0.00,Wunderground v.1.15,2013-08-19 10:05:00,
2013-08-19 03:15:00,59.8,54.3,29.80,ESE,111,0.0,5.0,82,0.00,,,0.00,Wunderground v.1.15,2013-08-19 10:15:00,
2013-08-19 03:20:00,59.7,54.2,29.80,ESE,112,0.0,5.0,82,0.00,,,0.00,Wunderground v.1.15,2013-08-19 10:20:00,
2013-08-19 03:25:00,59.6,54.4,29.81,ESE,112,0.0,5.0,83,0.00,,,0.00,Wunderground v.1.15,2013-08-19 10:25:00,
2013-08-19 03:30:00,59.6,54.4,29.81,ESE,112,0.0,5.0,83,0.00,,,0.00,Wunderground v.1.15,2013-08-19 10:30:00,
2013-08-19 03:35:00,59.6,54.4,29.80,ESE,112,0.0,5.0,83,0.00,,,0.00,Wunderground v.1.15,2013-08-19 10:35:00,
2013-08-19 03:45:00,59.5,54.3,29.80,ESE,112,0.0,5.0,83,0.00,,,0.00,Wunderground v.1.15,2013-08-19 10:45:00,
2013-08-19 03:50:00,59.5,54.3,29.80,ESE,112,0.0,5.0,83,0.00,,,0.00,Wunderground v.1.15,2013-08-19 10:50:00,
2013-08-19 03:55:00,59.5,54.7,29.79,ESE,111,0.0,5.0,84,0.00,,,0.00,Wunderground v.1.15,2013-08-19 10:55:00,
2013-08-19 04:05:00,59.9,55.1,29.79,ESE,112,0.0,5.0,84,0.00,,,0.00,Wunderground v.1.15,2013-08-19 11:05:00,
2013-08-19 04:10:00,60.0,55.2,29.78,ESE,112,0.0,5.0,84,0.00,,,0.00,Wunderground v.1.15,2013-08-19 11:10:00,
2013-08-19 04:15:00,60.0,55.2,29.79,ESE,112,0.0,5.0,84,0.00,,,0.00,Wunderground v.1.15,2013-08-19 11:15:00,
2013-08-19 04:20:00,59.7,54.9,29.79,ESE,111,0.0,5.0,84,0.00,,,0.00,Wunderground v.1.15,2013-08-19 11:20:00,
2013-08-19 04:25:00,59.6,54.8,29.79,ESE,112,0.0,5.0,84,0.00,,,0.00,Wunderground v.1.15,2013-08-19 11:25:00,
2013-08-19 04:35:00,59.6,54.8,29.80,ESE,111,0.0,5.0,84,0.00,,,0.00,Wunderground v.1.15,2013-08-19 11:35:00,
2013-08-19 04:40:00,59.8,55.3,29.79,ESE,112,0.0,5.0,85,0.00,,,0.00,Wunderground v.1.15,2013-08-19 11:40:00,
2013-08-19 04:45:00,59.8,55.3,29.80,ESE,111,0.0,5.0,85,0.00,,,0.00,Wunderground v.1.15,2013-08-19 11:45:00,
2013-08-19 04:50:00,59.8,55.3,29.80,ESE,112,0.0,5.0,85,0.00,,,0.00,Wunderground v.1.15,2013-08-19 11:50:00,
2013-08-19 04:55:00,59.6,55.1,29.81,ESE,111,0.0,5.0,85,0.00,,,0.00,Wunderground v.1.15,2013-08-19 11:55:00,
2013-08-19 05:05:00,59.6,55.1,29.81,ESE,112,0.0,5.0,85,0.00,,,0.00,Wunderground v.1.15,2013-08-19 12:05:00,
2013-08-19 05:10:00,59.5,55.0,29.81,ESE,112,0.0,5.0,85,0.00,,,0.00,Wunderground v.1.15,2013-08-19 12:10:00,
2013-08-19 05:15:00,59.3,54.8,29.82,ESE,111,0.0,5.0,85,0.00,,,0.00,Wunderground v.1.15,2013-08-19 12:15:00,
2013-08-19 05:20:00,59.0,54.8,29.82,ESE,111,0.0,5.0,86,0.00,,,0.00,Wunderground v.1.15,2013-08-19 12:20:00,
2013-08-19 05:25:00,59.0,54.8,29.82,ESE,111,0.0,5.0,86,0.00,,,0.00,Wunderground v.1.15,2013-08-19 12:25:00,
2013-08-19 05:35:00,59.0,54.8,29.82,ESE,112,0.0,5.0,86,0.00,,,0.00,Wunderground v.1.15,2013-08-19 12:35:00,
2013-08-19 05:40:00,59.0,54.8,29.82,ESE,111,0.0,5.0,86,0.00,,,0.00,Wunderground v.1.15,2013-08-19 12:40:00,
2013-08-19 05:45:00,58.8,54.9,29.82,ESE,112,0.0,5.0,87,0.00,,,0.00,Wunderground v.1.15,2013-08-19 12:45:00,
2013-08-19 05:50:00,58.7,54.8,29.82,ESE,112,0.0,5.0,87,0.00,,,0.00,Wunderground v.1.15,2013-08-19 12:50:00,
2013-08-19 05:55:00,58.7,54.8,29.82,ESE,112,0.0,5.0,87,0.00,,,0.00,Wunderground v.1.15,2013-08-19 12:55:00,
2013-08-19 06:05:00,58.7,54.8,29.82,ESE,111,0.0,5.0,87,0.00,,,0.00,Wunderground v.1.15,2013-08-19 13:05:00,
2013-08-19 06:10:00,58.7,54.8,29.83,ESE,111,0.0,5.0,87,0.00,,,0.00,Wunderground v.1.15,2013-08-19 13:10:00,
2013-08-19 06:15:00,58.6,55.1,29.83,ESE,112,0.0,5.0,88,0.00,,,0.00,Wunderground v.1.15,2013-08-19 13:15:00,
2013-08-19 06:25:00,58.2,54.7,29.83,ESE,111,0.0,5.0,88,0.00,,,0.00,Wunderground v.1.15,2013-08-19 13:25:00,
2013-08-19 06:30:00,58.1,54.6,29.83,ESE,112,0.0,5.0,88,0.00,,,0.00,Wunderground v.1.15,2013-08-19 13:30:00,
2013-08-19 06:35:00,58.0,54.5,29.84,ESE,111,0.0,5.0,88,0.00,,,0.00,Wunderground v.1.15,2013-08-19 13:35:00,
2013-08-19 06:40:00,58.0,54.5,29.84,ESE,111,0.0,5.0,88,0.00,,,0.00,Wunderground v.1.15,2013-08-19 13:40:00,
2013-08-19 06:45:00,58.0,54.5,29.84,ESE,112,0.0,5.0,88,0.00,,,0.00,Wunderground v.1.15,2013-08-19 13:45:00,
2013-08-19 06:55:00,58.2,55.0,29.84,ESE,112,0.0,5.0,89,0.00,,,0.00,Wunderground v.1.15,2013-08-19 13:55:00,
2013-08-19 07:00:00,58.4,55.2,29.84,ESE,111,0.0,5.0,89,0.00,,,0.00,Wunderground v.1.15,2013-08-19 14:00:00,
2013-08-19 07:10:00,58.5,55.3,29.85,ESE,113,0.0,5.0,89,0.00,,,0.00,Wunderground v.1.15,2013-08-19 14:10:00,
2013-08-19 07:15:00,58.6,55.4,29.85,ESE,112,0.0,5.0,89,0.00,,,0.00,Wunderground v.1.15,2013-08-19 14:15:00,
2013-08-19 07:20:00,58.9,55.7,29.85,ESE,113,0.0,5.0,89,0.00,,,0.00,Wunderground v.1.15,2013-08-19 14:20:00,
2013-08-19 07:25:00,59.0,55.8,29.85,ESE,112,0.0,5.0,89,0.00,,,0.00,Wunderground v.1.15,2013-08-19 14:25:00,
2013-08-19 07:35:00,59.2,56.0,29.85,ESE,112,0.0,5.0,89,0.00,,,0.00,Wunderground v.1.15,2013-08-19 14:35:00,
2013-08-19 07:40:00,59.6,56.4,29.85,ESE,113,0.0,5.0,89,0.00,,,0.00,Wunderground v.1.15,2013-08-19 14:40:00,
2013-08-19 07:45:00,60.0,56.4,29.85,ESE,113,0.0,5.0,88,0.00,,,0.00,Wunderground v.1.15,2013-08-19 14:45:00,
2013-08-19 07:50:00,60.4,56.8,29.85,ESE,112,0.0,5.0,88,0.00,,,0.00,Wunderground v.1.15,2013-08-19 14:50:00,
2013-08-19 07:55:00,60.9,57.3,29.86,ESE,111,0.0,5.0,88,0.00,,,0.00,Wunderground v.1.15,2013-08-19 14:55:00,
2013-08-19 08:05:00,62.0,58.1,29.86,ESE,112,0.0,5.0,87,0.00,,,0.00,Wunderground v.1.15,2013-08-19 15:05:00,
2013-08-19 08:10:00,62.8,58.9,29.86,ESE,113,0.0,5.0,87,0.00,,,0.00,Wunderground v.1.15,2013-08-19 15:10:00,
2013-08-19 08:15:00,63.5,59.2,29.86,ESE,112,0.0,5.0,86,0.00,,,0.00,Wunderground v.1.15,2013-08-19 15:15:00,
2013-08-19 08:20:00,64.0,59.4,29.86,ESE,111,0.0,5.0,85,0.00,,,0.00,Wunderground v.1.15,2013-08-19 15:20:00,
2013-08-19 08:30:00,65.5,60.5,29.87,ESE,112,0.0,5.0,84,0.00,,,0.00,Wunderground v.1.15,2013-08-19 15:30:00,
2013-08-19 08:35:00,66.6,61.3,29.87,ESE,113,0.0,5.0,83,0.00,,,0.00,Wunderground v.1.15,2013-08-19 15:35:00,
2013-08-19 08:40:00,67.3,61.3,29.87,ESE,113,0.0,5.0,81,0.00,,,0.00,Wunderground v.1.15,2013-08-19 15:40:00,
2013-08-19 08:50:00,68.8,61.7,29.87,ESE,111,0.0,5.0,78,0.00,,,0.00,Wunderground v.1.15,2013-08-19 15:50:00,
2013-08-19 08:55:00,69.4,61.5,29.87,ESE,111,0.0,5.0,76,0.00,,,0.00,Wunderground v.1.15,2013-08-19 15:55:00,
2013-08-19 09:00:00,69.6,61.3,29.87,ESE,112,0.0,5.0,75,0.00,,,0.00,Wunderground v.1.15,2013-08-19 16:00:00,
2013-08-19 09:05:00,70.1,62.2,29.87,ESE,112,0.0,5.0,76,0.00,,,0.00,Wunderground v.1.15,2013-08-19 16:05:00,
2013-08-19 09:10:00,70.5,62.2,29.87,ESE,111,0.0,5.0,75,0.00,,,0.00,Wunderground v.1.15,2013-08-19 16:10:00,
2013-08-19 09:20:00,71.2,62.5,29.87,ESE,112,0.0,5.0,74,0.00,,,0.00,Wunderground v.1.15,2013-08-19 16:20:00,
2013-08-19 09:25:00,71.9,62.4,29.87,ESE,111,0.0,5.0,72,0.00,,,0.00,Wunderground v.1.15,2013-08-19 16:25:00,
2013-08-19 09:35:00,72.9,62.5,29.87,ESE,112,0.0,5.0,70,0.00,,,0.00,Wunderground v.1.15,2013-08-19 16:35:00,
2013-08-19 09:40:00,73.5,62.7,29.87,ESE,112,0.0,5.0,69,0.00,,,0.00,Wunderground v.1.15,2013-08-19 16:40:00,
2013-08-19 09:45:00,74.2,62.5,29.87,ESE,112,0.0,5.0,67,0.00,,,0.00,Wunderground v.1.15,2013-08-19 16:45:00,
2013-08-19 09:50:00,74.4,62.7,29.87,ESE,113,0.0,5.0,67,0.00,,,0.00,Wunderground v.1.15,2013-08-19 16:50:00,
2013-08-19 10:00:00,75.3,62.7,29.87,SSE,164,0.0,5.0,65,0.00,,,0.00,Wunderground v.1.15,2013-08-19 17:00:00,
2013-08-19 10:05:00,76.0,62.9,29.87,SSE,149,0.0,5.0,64,0.00,,,0.00,Wunderground v.1.15,2013-08-19 17:05:00,
2013-08-19 10:10:00,76.6,63.5,29.87,ESE,109,0.0,5.0,64,0.00,,,0.00,Wunderground v.1.15,2013-08-19 17:10:00,
2013-08-19 10:15:00,77.3,63.3,29.87,SSE,159,1.0,5.0,62,0.00,,,0.00,Wunderground v.1.15,2013-08-19 17:15:00,
2013-08-19 10:25:00,78.0,63.9,29.88,East,98,1.0,5.0,62,0.00,,,0.00,Wunderground v.1.15,2013-08-19 17:25:00,
2013-08-19 10:30:00,78.1,64.0,29.88,East,98,1.0,5.0,62,0.00,,,0.00,Wunderground v.1.15,2013-08-19 17:30:00,
2013-08-19 10:35:00,78.7,63.6,29.88,East,92,1.0,5.0,60,0.00,,,0.00,Wunderground v.1.15,2013-08-19 17:35:00,
2013-08-19 10:45:00,78.8,63.7,29.88,SW,223,1.0,5.0,60,0.00,,,0.00,Wunderground v.1.15,2013-08-19 17:45:00,
2013-08-19 10:50:00,78.9,64.3,29.88,ESE,107,1.0,5.0,61,0.00,,,0.00,Wunderground v.1.15,2013-08-19 17:50:00,
2013-08-19 10:55:00,79.1,64.0,29.88,SE,128,1.0,5.0,60,0.00,,,0.00,Wunderground v.1.15,2013-08-19 17:55:00,
2013-08-19 11:00:00,79.7,64.6,29.88,NW,305,1.0,1.0,60,0.00,,,0.00,Wunderground v.1.15,2013-08-19 18:00:00,
2013-08-19 11:10:00,80.1,64.5,29.88,ESE,107,1.0,5.0,59,0.00,,,0.00,Wunderground v.1.15,2013-08-19 18:10:00,
2013-08-19 11:15:00,80.2,64.6,29.87,ESE,107,1.0,5.0,59,0.00,,,0.00,Wunderground v.1.15,2013-08-19 18:15:00,
2013-08-19 11:20:00,80.2,64.1,29.87,East,94,0.0,5.0,58,0.00,,,0.00,Wunderground v.1.15,2013-08-19 18:20:00,
2013-08-19 11:25:00,80.3,64.7,29.87,NE,49,1.0,5.0,59,0.00,,,0.00,Wunderground v.1.15,2013-08-19 18:25:00,
2013-08-19 11:35:00,80.4,64.8,29.87,WSW,252,1.0,5.0,59,0.00,,,0.00,Wunderground v.1.15,2013-08-19 18:35:00,
2013-08-19 11:40:00,80.8,64.6,29.87,SE,128,0.0,5.0,58,0.00,,,0.00,Wunderground v.1.15,2013-08-19 18:40:00,
2013-08-19 11:45:00,81.1,64.4,29.87,East,91,1.0,5.0,57,0.00,,,0.00,Wunderground v.1.15,2013-08-19 18:45:00,
2013-08-19 11:55:00,82.2,65.4,29.87,ESE,117,1.0,5.0,57,0.00,,,0.00,Wunderground v.1.15,2013-08-19 18:55:00,
2013-08-19 12:00:00,82.5,65.2,29.87,WSW,241,1.0,5.0,56,0.00,,,0.00,Wunderground v.1.15,2013-08-19 19:00:00,
2013-08-19 12:10:00,81.9,65.2,29.87,SE,126,1.0,5.0,57,0.00,,,0.00,Wunderground v.1.15,2013-08-19 19:10:00,
2013-08-19 12:15:00,82.6,65.8,29.87,East,96,1.0,5.0,57,0.00,,,0.00,Wunderground v.1.15,2013-08-19 19:15:00,
2013-08-19 12:20:00,83.2,64.8,29.87,ESE,119,2.0,5.0,54,0.00,,,0.00,Wunderground v.1.15,2013-08-19 19:20:00,
2013-08-19 12:30:00,84.6,65.0,29.86,SE,145,1.0,5.0,52,0.00,,,0.00,Wunderground v.1.15,2013-08-19 19:30:00,
2013-08-19 12:35:00,84.6,65.0,29.86,ESE,105,1.0,5.0,52,0.00,,,0.00,Wunderground v.1.15,2013-08-19 19:35:00,
2013-08-19 12:40:00,84.8,64.7,29.86,ESE,102,1.0,5.0,51,0.00,,,0.00,Wunderground v.1.15,2013-08-19 19:40:00,
2013-08-19 12:50:00,86.1,64.1,29.86,East,96,2.0,2.0,48,0.00,,,0.00,Wunderground v.1.15,2013-08-19 19:50:00,
2013-08-19 12:55:00,85.7,64.3,29.85,East,101,1.0,5.0,49,0.00,,,0.00,Wunderground v.1.15,2013-08-19 19:55:00,
2013-08-19 13:00:00,86.6,64.6,29.85,ESE,106,2.0,5.0,48,0.00,,,0.00,Wunderground v.1.15,2013-08-19 20:00:00,
2013-08-19 13:10:00,87.4,64.1,29.85,SE,124,1.0,5.0,46,0.00,,,0.00,Wunderground v.1.15,2013-08-19 20:10:00,
2013-08-19 13:15:00,87.0,63.7,29.85,East,98,1.0,5.0,46,0.00,,,0.00,Wunderground v.1.15,2013-08-19 20:15:00,
2013-08-19 13:20:00,86.4,63.8,29.85,SSE,155,1.0,5.0,47,0.00,,,0.00,Wunderground v.1.15,2013-08-19 20:20:00,
2013-08-19 13:25:00,85.8,63.2,29.84,ESE,107,1.0,5.0,47,0.00,,,0.00,Wunderground v.1.15,2013-08-19 20:25:00,
2013-08-19 13:35:00,85.8,63.2,29.84,ESE,122,1.0,2.0,47,0.00,,,0.00,Wunderground v.1.15,2013-08-19 20:35:00,
2013-08-19 13:40:00,85.9,63.3,29.84,SE,126,2.0,2.0,47,0.00,,,0.00,Wunderground v.1.15,2013-08-19 20:40:00,
2013-08-19 13:45:00,86.7,63.4,29.84,ESE,112,1.0,5.0,46,0.00,,,0.00,Wunderground v.1.15,2013-08-19 20:45:00,
2013-08-19 13:50:00,87.1,63.8,29.84,SE,126,1.0,5.0,46,0.00,,,0.00,Wunderground v.1.15,2013-08-19 20:50:00,
2013-08-19 14:00:00,87.3,64.0,29.84,East,90,1.0,5.0,46,0.00,,,0.00,Wunderground v.1.15,2013-08-19 21:00:00,
2013-08-19 14:05:00,87.5,64.2,29.84,ESE,110,1.0,5.0,46,0.00,,,0.00,Wunderground v.1.15,2013-08-19 21:05:00,
2013-08-19 14:10:00,87.8,63.2,29.84,ESE,105,1.0,1.0,44,0.00,,,0.00,Wunderground v.1.15,2013-08-19 21:10:00,
2013-08-19 14:20:00,88.0,63.4,29.84,ENE,63,1.0,1.0,44,0.00,,,0.00,Wunderground v.1.15,2013-08-19 21:20:00,
2013-08-19 14:25:00,86.9,63.0,29.84,ESE,105,1.0,2.0,45,0.00,,,0.00,Wunderground v.1.15,2013-08-19 21:25:00,
2013-08-19 14:30:00,87.1,62.5,29.84,ESE,102,1.0,1.0,44,0.00,,,0.00,Wunderground v.1.15,2013-08-19 21:30:00,
2013-08-19 14:35:00,87.2,63.3,29.84,ESE,119,1.0,5.0,45,0.00,,,0.00,Wunderground v.1.15,2013-08-19 21:35:00,
2013-08-19 14:45:00,89.3,63.2,29.83,East,101,0.0,5.0,42,0.00,,,0.00,Wunderground v.1.15,2013-08-19 21:45:00,
2013-08-19 14:50:00,87.9,63.3,29.83,East,94,1.0,5.0,44,0.00,,,0.00,Wunderground v.1.15,2013-08-19 21:50:00,
2013-08-19 14:55:00,88.6,63.2,29.83,East,94,1.0,5.0,43,0.00,,,0.00,Wunderground v.1.15,2013-08-19 21:55:00,
2013-08-19 15:05:00,89.8,63.0,29.83,East,79,1.0,5.0,41,0.00,,,0.00,Wunderground v.1.15,2013-08-19 22:05:00,
2013-08-19 15:10:00,90.1,63.2,29.83,WNW,288,1.0,1.0,41,0.00,,,0.00,Wunderground v.1.15,2013-08-19 22:10:00,
2013-08-19 15:15:00,89.6,63.5,29.83,ESE,102,1.0,5.0,42,0.00,,,0.00,Wunderground v.1.15,2013-08-19 22:15:00,
2013-08-19 15:25:00,89.5,63.4,29.83,ESE,107,1.0,5.0,42,0.00,,,0.00,Wunderground v.1.15,2013-08-19 22:25:00,
2013-08-19 15:30:00,89.0,62.9,29.82,East,82,1.0,5.0,42,0.00,,,0.00,Wunderground v.1.15,2013-08-19 22:30:00,
2013-08-19 15:35:00,88.8,63.4,29.82,ESE,118,1.0,5.0,43,0.00,,,0.00,Wunderground v.1.15,2013-08-19 22:35:00,
2013-08-19 15:40:00,88.1,63.4,29.82,ESE,112,1.0,1.0,44,0.00,,,0.00,Wunderground v.1.15,2013-08-19 22:40:00,
2013-08-19 15:45:00,88.0,63.4,29.82,ESE,107,0.0,5.0,44,0.00,,,0.00,Wunderground v.1.15,2013-08-19 22:45:00,
2013-08-19 15:55:00,87.7,63.1,29.82,ESE,119,0.0,5.0,44,0.00,,,0.00,Wunderground v.1.15,2013-08-19 22:55:00,
2013-08-19 16:00:00,88.0,62.7,29.82,ESE,110,1.0,1.0,43,0.00,,,0.00,Wunderground v.1.15,2013-08-19 23:00:00,
2013-08-19 16:10:00,87.8,62.5,29.82,ESE,115,0.0,5.0,43,0.00,,,0.00,Wunderground v.1.15,2013-08-19 23:10:00,
2013-08-19 16:20:00,86.8,62.9,29.82,ESE,105,2.0,2.0,45,0.00,,,0.00,Wunderground v.1.15,2013-08-19 23:20:00,
2013-08-19 16:25:00,86.6,62.7,29.82,SE,130,2.0,5.0,45,0.00,,,0.00,Wunderground v.1.15,2013-08-19 23:25:00,
2013-08-19 16:30:00,85.8,62.0,29.82,ESE,102,1.0,5.0,45,0.00,,,0.00,Wunderground v.1.15,2013-08-19 23:30:00,
2013-08-19 16:35:00,85.6,62.4,29.82,ESE,117,1.0,5.0,46,0.00,,,0.00,Wunderground v.1.15,2013-08-19 23:35:00,
2013-08-19 16:40:00,85.1,62.6,29.81,ESE,106,1.0,5.0,47,0.00,,,0.00,Wunderground v.1.15,2013-08-19 23:40:00,
2013-08-19 16:50:00,84.5,63.2,29.81,ESE,116,1.0,5.0,49,0.00,,,0.00,Wunderground v.1.15,2013-08-19 23:50:00,
2013-08-19 16:55:00,84.3,63.1,29.81,ESE,115,1.0,5.0,49,0.00,,,0.00,Wunderground v.1.15,2013-08-19 23:55:00,
2013-08-19 17:00:00,84.3,63.1,29.81,SE,128,1.0,5.0,49,0.00,,,0.00,Wunderground v.1.15,2013-08-20 00:00:00,
2013-08-19 17:05:00,83.5,62.9,29.81,East,99,1.0,5.0,50,0.00,,,0.00,Wunderground v.1.15,2013-08-20 00:05:00,
2013-08-19 17:15:00,82.8,62.8,29.81,East,92,1.0,5.0,51,0.00,,,0.00,Wunderground v.1.15,2013-08-20 00:15:00,
2013-08-19 17:20:00,82.3,62.4,29.81,East,97,1.0,5.0,51,0.00,,,0.00,Wunderground v.1.15,2013-08-20 00:20:00,
2013-08-19 17:25:00,81.7,62.4,29.81,ESE,106,1.0,5.0,52,0.00,,,0.00,Wunderground v.1.15,2013-08-20 00:25:00,
2013-08-19 17:30:00,81.3,62.5,29.81,East,95,1.0,5.0,53,0.00,,,0.00,Wunderground v.1.15,2013-08-20 00:30:00,
2013-08-19 17:35:00,81.1,62.3,29.81,East,96,1.0,5.0,53,0.00,,,0.00,Wunderground v.1.15,2013-08-20 00:35:00,
2013-08-19 17:45:00,80.9,62.2,29.81,East,94,0.0,5.0,53,0.00,,,0.00,Wunderground v.1.15,2013-08-20 00:45:00,
2013-08-19 17:50:00,80.8,63.1,29.81,ESE,123,0.0,5.0,55,0.00,,,0.00,Wunderground v.1.15,2013-08-20 00:50:00,
2013-08-19 17:55:00,80.5,62.3,29.81,ESE,102,1.0,5.0,54,0.00,,,0.00,Wunderground v.1.15,2013-08-20 00:55:00,
2013-08-19 18:05:00,79.7,62.6,29.81,ESE,117,1.0,5.0,56,0.00,,,0.00,Wunderground v.1.15,2013-08-20 01:05:00,
2013-08-19 18:10:00,79.6,62.5,29.81,ESE,102,0.0,5.0,56,0.00,,,0.00,Wunderground v.1.15,2013-08-20 01:10:00,
2013-08-19 18:15:00,79.1,62.6,29.81,ESE,103,0.0,5.0,57,0.00,,,0.00,Wunderground v.1.15,2013-08-20 01:15:00,
2013-08-19 18:20:00,78.3,62.3,29.81,ESE,106,1.0,1.0,58,0.00,,,0.00,Wunderground v.1.15,2013-08-20 01:20:00,
2013-08-19 18:25:00,77.9,62.4,29.81,East,96,1.0,5.0,59,0.00,,,0.00,Wunderground v.1.15,2013-08-20 01:25:00,
2013-08-19 18:35:00,77.5,62.0,29.81,East,95,0.0,5.0,59,0.00,,,0.00,Wunderground v.1.15,2013-08-20 01:35:00,
2013-08-19 18:40:00,77.0,62.0,29.81,East,92,0.0,5.0,60,0.00,,,0.00,Wunderground v.1.15,2013-08-20 01:40:00,
2013-08-19 18:45:00,76.5,62.0,29.82,ESE,103,0.0,5.0,61,0.00,,,0.00,Wunderground v.1.15,2013-08-20 01:45:00,
2013-08-19 18:50:00,76.1,62.1,29.82,ESE,103,0.0,5.0,62,0.00,,,0.00,Wunderground v.1.15,2013-08-20 01:50:00,
2013-08-19 19:00:00,75.3,61.8,29.82,ESE,103,0.0,5.0,63,0.00,,,0.00,Wunderground v.1.15,2013-08-20 02:00:00,
2013-08-19 19:05:00,74.9,61.9,29.82,ESE,103,0.0,5.0,64,0.00,,,0.00,Wunderground v.1.15,2013-08-20 02:05:00,
2013-08-19 19:10:00,74.2,61.7,29.82,ESE,103,0.0,5.0,65,0.00,,,0.00,Wunderground v.1.15,2013-08-20 02:10:00,
2013-08-19 19:20:00,73.2,61.6,29.82,East,99,0.0,5.0,67,0.00,,,0.00,Wunderground v.1.15,2013-08-20 02:20:00,
2013-08-19 19:25:00,72.6,61.4,29.82,East,99,0.0,5.0,68,0.00,,,0.00,Wunderground v.1.15,2013-08-20 02:25:00,
2013-08-19 19:30:00,72.2,61.5,29.82,East,99,0.0,5.0,69,0.00,,,0.00,Wunderground v.1.15,2013-08-20 02:30:00,
2013-08-19 19:35:00,71.9,61.6,29.82,East,99,0.0,5.0,70,0.00,,,0.00,Wunderground v.1.15,2013-08-20 02:35:00,
2013-08-19 19:40:00,71.5,61.2,29.83,East,99,0.0,5.0,70,0.00,,,0.00,Wunderground v.1.15,2013-08-20 02:40:00,
2013-08-19 19:50:00,70.8,60.5,29.83,East,99,0.0,5.0,70,0.00,,,0.00,Wunderground v.1.15,2013-08-20 02:50:00,
2013-08-19 19:55:00,70.5,60.6,29.83,East,99,0.0,5.0,71,0.00,,,0.00,Wunderground v.1.15,2013-08-20 02:55:00,
2013-08-19 20:00:00,70.3,60.4,29.83,East,99,0.0,5.0,71,0.00,,,0.00,Wunderground v.1.15,2013-08-20 03:00:00,
2013-08-19 20:05:00,70.0,60.2,29.84,East,99,0.0,5.0,71,0.00,,,0.00,Wunderground v.1.15,2013-08-20 03:05:00,
2013-08-19 20:10:00,69.8,60.4,29.83,East,99,0.0,5.0,72,0.00,,,0.00,Wunderground v.1.15,2013-08-20 03:10:00,
2013-08-19 20:20:00,69.5,60.5,29.84,East,99,0.0,5.0,73,0.00,,,0.00,Wunderground v.1.15,2013-08-20 03:20:00,
2013-08-19 20:25:00,69.3,60.3,29.85,East,99,0.0,5.0,73,0.00,,,0.00,Wunderground v.1.15,2013-08-20 03:25:00,
2013-08-19 20:30:00,69.2,60.2,29.85,East,99,0.0,5.0,73,0.00,,,0.00,Wunderground v.1.15,2013-08-20 03:30:00,
2013-08-19 20:35:00,69.1,60.5,29.84,East,99,0.0,5.0,74,0.00,,,0.00,Wunderground v.1.15,2013-08-20 03:35:00,
2013-08-19 20:45:00,68.9,60.6,29.84,East,99,0.0,5.0,75,0.00,,,0.00,Wunderground v.1.15,2013-08-20 03:45:00,
2013-08-19 20:50:00,68.7,60.8,29.85,East,99,0.0,5.0,76,0.00,,,0.00,Wunderground v.1.15,2013-08-20 03:50:00,
2013-08-19 20:55:00,68.4,60.9,29.85,East,93,0.0,5.0,77,0.00,,,0.00,Wunderground v.1.15,2013-08-20 03:55:00,
2013-08-19 21:05:00,67.9,61.1,29.85,East,93,0.0,5.0,79,0.00,,,0.00,Wunderground v.1.15,2013-08-20 04:05:00,
2013-08-19 21:10:00,67.6,60.9,29.85,East,93,0.0,5.0,79,0.00,,,0.00,Wunderground v.1.15,2013-08-20 04:10:00,
2013-08-19 21:15:00,67.2,60.5,29.85,East,93,0.0,5.0,79,0.00,,,0.00,Wunderground v.1.15,2013-08-20 04:15:00,
2013-08-19 21:20:00,67.1,60.7,29.85,East,93,0.0,5.0,80,0.00,,,0.00,Wunderground v.1.15,2013-08-20 04:20:00,
2013-08-19 21:30:00,67.2,60.8,29.86,East,93,0.0,5.0,80,0.00,,,0.00,Wunderground v.1.15,2013-08-20 04:30:00,
2013-08-19 21:35:00,67.4,60.7,29.86,East,92,0.0,5.0,79,0.00,,,0.00,Wunderground v.1.15,2013-08-20 04:35:00,
2013-08-19 21:40:00,67.1,60.4,29.86,NNW,330,0.0,5.0,79,0.00,,,0.00,Wunderground v.1.15,2013-08-20 04:40:00,
2013-08-19 21:45:00,66.9,60.5,29.87,NNW,330,0.0,5.0,80,0.00,,,0.00,Wunderground v.1.15,2013-08-20 04:45:00,
2013-08-19 21:50:00,66.7,60.3,29.87,NNW,330,0.0,5.0,80,0.00,,,0.00,Wunderground v.1.15,2013-08-20 04:50:00,
2013-08-19 22:00:00,66.2,60.2,29.87,East,92,0.0,5.0,81,0.00,,,0.00,Wunderground v.1.15,2013-08-20 05:00:00,
2013-08-19 22:05:00,66.0,60.3,29.87,East,92,0.0,5.0,82,0.00,,,0.00,Wunderground v.1.15,2013-08-20 05:05:00,
2013-08-19 22:10:00,66.1,60.8,29.87,East,93,0.0,5.0,83,0.00,,,0.00,Wunderground v.1.15,2013-08-20 05:10:00,
2013-08-19 22:15:00,65.7,60.4,29.87,East,93,0.0,5.0,83,0.00,,,0.00,Wunderground v.1.15,2013-08-20 05:15:00,
2013-08-19 22:20:00,65.4,60.4,29.87,East,93,0.0,5.0,84,0.00,,,0.00,Wunderground v.1.15,2013-08-20 05:20:00,
2013-08-19 22:30:00,64.6,60.3,29.87,East,93,0.0,5.0,86,0.00,,,0.00,Wunderground v.1.15,2013-08-20 05:30:00,
2013-08-19 22:35:00,64.2,59.9,29.88,East,93,0.0,5.0,86,0.00,,,0.00,Wunderground v.1.15,2013-08-20 05:35:00,
2013-08-19 22:40:00,63.8,59.5,29.88,East,93,0.0,5.0,86,0.00,,,0.00,Wunderground v.1.15,2013-08-20 05:40:00,
2013-08-19 22:50:00,63.6,60.0,29.89,East,93,0.0,5.0,88,0.00,,,0.00,Wunderground v.1.15,2013-08-20 05:50:00,
2013-08-19 22:55:00,63.7,60.4,29.89,East,93,0.0,5.0,89,0.00,,,0.00,Wunderground v.1.15,2013-08-20 05:55:00,
2013-08-19 23:00:00,63.5,59.9,29.90,East,93,0.0,5.0,88,0.00,,,0.00,Wunderground v.1.15,2013-08-20 06:00:00,
2013-08-19 23:05:00,63.3,59.7,29.90,East,93,0.0,5.0,88,0.00,,,0.00,Wunderground v.1.15,2013-08-20 06:05:00,
2013-08-19 23:10:00,63.2,59.9,29.90,East,92,0.0,5.0,89,0.00,,,0.00,Wunderground v.1.15,2013-08-20 06:10:00,
2013-08-19 23:20:00,63.2,59.9,29.90,East,93,0.0,5.0,89,0.00,,,0.00,Wunderground v.1.15,2013-08-20 06:20:00,
2013-08-19 23:25:00,63.2,60.2,29.90,East,92,0.0,5.0,90,0.00,,,0.00,Wunderground v.1.15,2013-08-20 06:25:00,
2013-08-19 23:30:00,63.2,59.9,29.90,East,93,0.0,5.0,89,0.00,,,0.00,Wunderground v.1.15,2013-08-20 06:30:00,
2013-08-19 23:35:00,63.3,60.3,29.89,East,93,0.0,5.0,90,0.00,,,0.00,Wunderground v.1.15,2013-08-20 06:35:00,
2013-08-19 23:45:00,63.3,60.3,29.88,East,92,0.0,5.0,90,0.00,,,0.00,Wunderground v.1.15,2013-08-20 06:45:00,
2013-08-19 23:50:00,63.5,60.5,29.88,East,93,0.0,5.0,90,0.00,,,0.00,Wunderground v.1.15,2013-08-20 06:50:00,
2013-08-19 23:55:00,63.4,60.4,29.87,East,92,0.0,5.0,90,0.00,,,0.00,Wunderground v.1.15,2013-08-20 06:55:00,